Search for airport 
image banner adimage banner adimage banner ad
image banner ad

61L - Engine Co Nr 109

Located in Los Angeles/Van Nuys, United States

ICAO - 61L, IATA -

Data provided by Airmate  

General information

Coordinates: N34°7'51" W118°29'26"
Elevation is 1375 feet MSL.
Magnetic variation is 14° East
View others Airports in California

Operational data

Special qualification required
Current time UTC:
Current local time:
Weather at : KVNY - Van Nuys ( 9 km )
METAR: KVNY 260951Z VRB03KT 9SM OVC006 16/14 A3002 RMK AO2 SLP156 T01610139
TAF: KVNY 261017Z 2610/2706 VRB03KT 4SM BR OVC006 FM261300 VRB03KT 5SM BR OVC011 FM261700 13004KT P6SM FEW011 FM262100 15008KT P6SM SKC FM270400 13004KT P6SM SKC
View NOTAMs / SUP AIP / TFR affecting this airport [VIEW]
Communications frequencies: [VIEW]

Runways:

Airport contact information

Address: Los Angeles/Van Nuys United States

Satellite view of 61L